KBKT/BKT METAR and TAF weather

Enter ICAO airport designator
Station Type Date Time Source
KBKT METAR 2021/05/15 02:15 UTC NOAA

KBKT 150215Z AUTO 00000KT 10SM CLR 12/05 A3025 RMK AO1 T01190049


Station Type Date Time Source
KBKT Decoded METAR 2021/05/15 02:15 UTC NOAA

Ft. Pickett / Blackstone, VA, United States (KBKT) 37-05N 077-57W
May 14, 2021 - 10:15 PM EDT / 2021.05.15 0215 UTC
Wind: Calm:0
Visibility: 10 mile(s):0
Sky conditions: clear
Temperature: 53.4 F (11.9 C)
Dew Point: 40.8 F (4.9 C)
Relative Humidity: 62%
Pressure (altimeter): 30.25 in. Hg (1024 hPa)
ob: KBKT 150215Z AUTO 00000KT 10SM CLR 12/05 A3025 RMK AO1 T01190049
cycle: 2

Station Type Date Time Source
KBKT TAF UTC NOAA

Error!

Example: see airport list